PAL591 RPLL-VVTS
Flight info
| Callsign | PAL591 |
|---|---|
| Flight time | 2h 11m |
| Altitude | 36000 |
| Route | BETEL2R BETEL M765 NOBEN/N0455F340 M765 PANDI/K0841F340 N500 PTH DALAP2J |
| Aircraft | A321/M-SDE3FGHIRWY/LB1 |
Departure
| Time | 2026-05-06 10:43 |
|---|---|
| Airport | Ninoy Aquino International Airport (RPLL) |
Arrival
| Time | 2026-05-06 12:54 |
|---|---|
| Airport | Tan Son Nhat International Airport (VVTS) |
| Time | Latitude | Longitude | Altitude | Speed | Heading |
|---|---|---|---|---|---|
| 2026-05-06 10:11 | 14.50426 | 121.00360 | 69 ft | 0 kts | 95° |
| 2026-05-06 10:30 | 14.50427 | 121.00351 | 60 ft | 3 kts | 95° |
| 2026-05-06 10:30 | 14.50428 | 121.00330 | 65 ft | 3 kts | 95° |
| 2026-05-06 10:31 | 14.50429 | 121.00319 | 61 ft | 2 kts | 96° |
| 2026-05-06 10:31 | 14.50433 | 121.00302 | 64 ft | 3 kts | 134° |
| 2026-05-06 10:31 | 14.50448 | 121.00293 | 59 ft | 3 kts | 176° |
| 2026-05-06 10:31 | 14.50460 | 121.00293 | 61 ft | 0 kts | 185° |
| 2026-05-06 10:32 | 14.50446 | 121.00292 | 59 ft | 3 kts | 185° |
| 2026-05-06 10:32 | 14.50425 | 121.00290 | 59 ft | 3 kts | 185° |
| 2026-05-06 10:32 | 14.50405 | 121.00289 | 66 ft | 3 kts | 185° |
| 2026-05-06 10:32 | 14.50385 | 121.00287 | 63 ft | 3 kts | 185° |
| 2026-05-06 10:33 | 14.50371 | 121.00286 | 61 ft | 1 kts | 185° |
| 2026-05-06 10:38 | 14.50362 | 121.00285 | 66 ft | 2 kts | 185° |
| 2026-05-06 10:38 | 14.50318 | 121.00281 | 64 ft | 8 kts | 185° |
| 2026-05-06 10:38 | 14.50267 | 121.00278 | 63 ft | 9 kts | 181° |
| 2026-05-06 10:38 | 14.50214 | 121.00303 | 64 ft | 9 kts | 150° |
| 2026-05-06 10:39 | 14.50158 | 121.00336 | 66 ft | 10 kts | 152° |
| 2026-05-06 10:39 | 14.50105 | 121.00304 | 60 ft | 11 kts | 238° |
| 2026-05-06 10:39 | 14.50057 | 121.00224 | 60 ft | 15 kts | 238° |
| 2026-05-06 10:39 | 14.50014 | 121.00146 | 63 ft | 13 kts | 240° |
| 2026-05-06 10:40 | 14.49966 | 121.00057 | 62 ft | 11 kts | 240° |
| 2026-05-06 10:40 | 14.49918 | 120.99976 | 65 ft | 13 kts | 228° |
| 2026-05-06 10:40 | 14.49839 | 120.99985 | 66 ft | 11 kts | 150° |
| 2026-05-06 10:40 | 14.49816 | 121.00055 | 69 ft | 14 kts | 68° |
| 2026-05-06 10:41 | 14.49856 | 121.00134 | 59 ft | 12 kts | 59° |
| 2026-05-06 10:41 | 14.49860 | 121.00140 | 59 ft | 0 kts | 59° |
| 2026-05-06 10:42 | 14.49861 | 121.00141 | 59 ft | 2 kts | 59° |
| 2026-05-06 10:42 | 14.49948 | 121.00299 | 64 ft | 60 kts | 60° |
| 2026-05-06 10:42 | 14.50264 | 121.00874 | 69 ft | 123 kts | 60° |
| 2026-05-06 10:42 | 14.50781 | 121.01797 | 105 ft | 168 kts | 62° |
| 2026-05-06 10:43 | 14.51355 | 121.02807 | 767 ft | 157 kts | 61° |
| 2026-05-06 10:43 | 14.51904 | 121.03785 | 1430 ft | 158 kts | 62° |
| 2026-05-06 10:43 | 14.52449 | 121.04773 | 1904 ft | 162 kts | 61° |
| 2026-05-06 10:44 | 14.53706 | 121.07055 | 2233 ft | 202 kts | 61° |
| 2026-05-06 10:44 | 14.54432 | 121.08368 | 2344 ft | 221 kts | 60° |
| 2026-05-06 10:44 | 14.55236 | 121.09821 | 2504 ft | 243 kts | 61° |
| 2026-05-06 10:44 | 14.56091 | 121.11367 | 3054 ft | 251 kts | 60° |
| 2026-05-06 10:45 | 14.57212 | 121.12748 | 3677 ft | 255 kts | 36° |
| 2026-05-06 10:45 | 14.58862 | 121.13426 | 4300 ft | 261 kts | 7° |
| 2026-05-06 10:45 | 14.60684 | 121.13478 | 4943 ft | 264 kts | 1° |
| 2026-05-06 10:45 | 14.62526 | 121.13481 | 5616 ft | 266 kts | 1° |
| 2026-05-06 10:46 | 14.64385 | 121.13482 | 6260 ft | 268 kts | 2° |
| 2026-05-06 10:46 | 14.66257 | 121.13480 | 6891 ft | 270 kts | 359° |
| 2026-05-06 10:46 | 14.68097 | 121.13053 | 7455 ft | 276 kts | 332° |
| 2026-05-06 10:46 | 14.69519 | 121.11725 | 8030 ft | 282 kts | 302° |
| 2026-05-06 10:47 | 14.70109 | 121.09797 | 8597 ft | 287 kts | 272° |
| 2026-05-06 10:47 | 14.70112 | 121.07727 | 9182 ft | 290 kts | 269° |
| 2026-05-06 10:47 | 14.70082 | 121.05631 | 9782 ft | 293 kts | 269° |
| 2026-05-06 10:47 | 14.70050 | 121.03520 | 10325 ft | 295 kts | 270° |
| 2026-05-06 10:48 | 14.70021 | 121.01385 | 10859 ft | 298 kts | 270° |
| 2026-05-06 10:48 | 14.69776 | 120.99252 | 11364 ft | 303 kts | 256° |
| 2026-05-06 10:48 | 14.69084 | 120.97119 | 11486 ft | 323 kts | 250° |
| 2026-05-06 10:48 | 14.68273 | 120.94884 | 11619 ft | 342 kts | 249° |
| 2026-05-06 10:49 | 14.67412 | 120.92522 | 11733 ft | 360 kts | 249° |
| 2026-05-06 10:49 | 14.66521 | 120.90066 | 12040 ft | 369 kts | 250° |
| 2026-05-06 10:49 | 14.65618 | 120.87563 | 12508 ft | 373 kts | 250° |
| 2026-05-06 10:49 | 14.64721 | 120.85070 | 13003 ft | 376 kts | 249° |
| 2026-05-06 10:50 | 14.63565 | 120.82641 | 13484 ft | 379 kts | 237° |
| 2026-05-06 10:50 | 14.62030 | 120.80423 | 13966 ft | 381 kts | 233° |
| 2026-05-06 10:50 | 14.60452 | 120.78205 | 14404 ft | 384 kts | 233° |
| 2026-05-06 10:50 | 14.58870 | 120.75972 | 14828 ft | 387 kts | 233° |
| 2026-05-06 10:51 | 14.57280 | 120.73724 | 15307 ft | 388 kts | 233° |
| 2026-05-06 10:51 | 14.55684 | 120.71463 | 15776 ft | 390 kts | 233° |
| 2026-05-06 10:51 | 14.54079 | 120.69193 | 16239 ft | 392 kts | 233° |
| 2026-05-06 10:51 | 14.52467 | 120.66916 | 16709 ft | 394 kts | 233° |
| 2026-05-06 10:52 | 14.50845 | 120.64621 | 17137 ft | 397 kts | 234° |
| 2026-05-06 10:52 | 14.49220 | 120.62322 | 17652 ft | 398 kts | 233° |
| 2026-05-06 10:52 | 14.47586 | 120.60014 | 18129 ft | 399 kts | 233° |
| 2026-05-06 10:52 | 14.45940 | 120.57691 | 18491 ft | 402 kts | 233° |
| 2026-05-06 10:53 | 14.44285 | 120.55355 | 18874 ft | 404 kts | 233° |
| 2026-05-06 10:53 | 14.42620 | 120.53005 | 19271 ft | 406 kts | 233° |
| 2026-05-06 10:53 | 14.40950 | 120.50648 | 19675 ft | 408 kts | 234° |
| 2026-05-06 10:53 | 14.39273 | 120.48281 | 20073 ft | 410 kts | 234° |
| 2026-05-06 10:54 | 14.37588 | 120.45905 | 20457 ft | 412 kts | 234° |
| 2026-05-06 10:54 | 14.35888 | 120.43508 | 20838 ft | 414 kts | 234° |
| 2026-05-06 10:54 | 14.34184 | 120.41105 | 21239 ft | 416 kts | 234° |
| 2026-05-06 10:54 | 14.32471 | 120.38689 | 21638 ft | 418 kts | 233° |
| 2026-05-06 10:55 | 14.30751 | 120.36271 | 22035 ft | 419 kts | 233° |
| 2026-05-06 10:55 | 14.29027 | 120.33843 | 22402 ft | 421 kts | 234° |
| 2026-05-06 10:55 | 14.27290 | 120.31398 | 22762 ft | 423 kts | 234° |
| 2026-05-06 10:55 | 14.25569 | 120.28978 | 23106 ft | 425 kts | 233° |
| 2026-05-06 10:56 | 14.23815 | 120.26515 | 23444 ft | 427 kts | 233° |
| 2026-05-06 10:56 | 14.22032 | 120.24013 | 23731 ft | 429 kts | 234° |
| 2026-05-06 10:56 | 14.20286 | 120.21559 | 23995 ft | 431 kts | 233° |
| 2026-05-06 10:56 | 14.18532 | 120.19054 | 24270 ft | 432 kts | 237° |
| 2026-05-06 10:57 | 14.17085 | 120.16333 | 24544 ft | 434 kts | 246° |
| 2026-05-06 10:57 | 14.15944 | 120.13456 | 24818 ft | 435 kts | 248° |
| 2026-05-06 10:57 | 14.14805 | 120.10559 | 25080 ft | 437 kts | 248° |
| 2026-05-06 10:57 | 14.13660 | 120.07658 | 25363 ft | 438 kts | 248° |
| 2026-05-06 10:58 | 14.12508 | 120.04745 | 25639 ft | 440 kts | 248° |
| 2026-05-06 10:58 | 14.11350 | 120.01825 | 25916 ft | 441 kts | 248° |
| 2026-05-06 10:58 | 14.10189 | 119.98896 | 26187 ft | 442 kts | 248° |
| 2026-05-06 10:58 | 14.09420 | 119.96952 | 26347 ft | 443 kts | 248° |
| 2026-05-06 10:59 | 14.08251 | 119.94004 | 26624 ft | 445 kts | 248° |
| 2026-05-06 10:59 | 14.07081 | 119.91049 | 26900 ft | 446 kts | 248° |
| 2026-05-06 10:59 | 14.05906 | 119.88081 | 27165 ft | 447 kts | 247° |
| 2026-05-06 10:59 | 14.04729 | 119.85109 | 27411 ft | 449 kts | 248° |
| 2026-05-06 11:00 | 14.03161 | 119.81154 | 27787 ft | 451 kts | 247° |
| 2026-05-06 11:00 | 14.01974 | 119.78165 | 28049 ft | 452 kts | 247° |
| 2026-05-06 11:00 | 14.00782 | 119.75163 | 28302 ft | 454 kts | 248° |
| 2026-05-06 11:00 | 13.99975 | 119.73131 | 28457 ft | 455 kts | 247° |
| 2026-05-06 11:01 | 13.98773 | 119.70112 | 28703 ft | 456 kts | 247° |
| 2026-05-06 11:01 | 13.97566 | 119.67087 | 28930 ft | 458 kts | 247° |
| 2026-05-06 11:01 | 13.96351 | 119.64048 | 29130 ft | 460 kts | 247° |
| 2026-05-06 11:01 | 13.95147 | 119.61029 | 29365 ft | 462 kts | 248° |
| 2026-05-06 11:02 | 13.93928 | 119.57968 | 29594 ft | 463 kts | 247° |
| 2026-05-06 11:02 | 13.92707 | 119.54893 | 29831 ft | 465 kts | 248° |
| 2026-05-06 11:02 | 13.91482 | 119.51807 | 30045 ft | 466 kts | 248° |
| 2026-05-06 11:02 | 13.90252 | 119.48715 | 30257 ft | 467 kts | 248° |
| 2026-05-06 11:03 | 13.89018 | 119.45618 | 30467 ft | 469 kts | 248° |
| 2026-05-06 11:03 | 13.87780 | 119.42513 | 30693 ft | 469 kts | 248° |
| 2026-05-06 11:03 | 13.86543 | 119.39413 | 30992 ft | 468 kts | 248° |
| 2026-05-06 11:03 | 13.85305 | 119.36313 | 31292 ft | 467 kts | 248° |
| 2026-05-06 11:04 | 13.84069 | 119.33230 | 31587 ft | 465 kts | 248° |
| 2026-05-06 11:04 | 13.82837 | 119.30155 | 31885 ft | 464 kts | 248° |
| 2026-05-06 11:04 | 13.81606 | 119.27086 | 32177 ft | 463 kts | 248° |
| 2026-05-06 11:04 | 13.80376 | 119.24018 | 32478 ft | 462 kts | 248° |
| 2026-05-06 11:05 | 13.79157 | 119.20965 | 32756 ft | 462 kts | 248° |
| 2026-05-06 11:05 | 13.77936 | 119.17903 | 33039 ft | 461 kts | 248° |
| 2026-05-06 11:05 | 13.76732 | 119.14896 | 33319 ft | 460 kts | 248° |
| 2026-05-06 11:05 | 13.75498 | 119.11820 | 33607 ft | 459 kts | 248° |
| 2026-05-06 11:06 | 13.74280 | 119.08785 | 33892 ft | 458 kts | 248° |
| 2026-05-06 11:06 | 13.73082 | 119.05800 | 34151 ft | 457 kts | 248° |
| 2026-05-06 11:06 | 13.71871 | 119.02783 | 34406 ft | 455 kts | 248° |
| 2026-05-06 11:06 | 13.70663 | 118.99772 | 34668 ft | 454 kts | 248° |
| 2026-05-06 11:07 | 13.69464 | 118.96777 | 34912 ft | 453 kts | 248° |
| 2026-05-06 11:07 | 13.68264 | 118.93782 | 35159 ft | 452 kts | 248° |
| 2026-05-06 11:07 | 13.67061 | 118.90792 | 35401 ft | 452 kts | 248° |
| 2026-05-06 11:07 | 13.65859 | 118.87813 | 35636 ft | 451 kts | 248° |
| 2026-05-06 11:08 | 13.64660 | 118.84838 | 35824 ft | 451 kts | 248° |
| 2026-05-06 11:08 | 13.62266 | 118.78895 | 35876 ft | 449 kts | 248° |
| 2026-05-06 11:09 | 13.59876 | 118.72971 | 35886 ft | 448 kts | 248° |
| 2026-05-06 11:09 | 13.57484 | 118.67056 | 35869 ft | 448 kts | 248° |
| 2026-05-06 11:10 | 13.55103 | 118.61132 | 35885 ft | 449 kts | 248° |
| 2026-05-06 11:10 | 13.52713 | 118.55199 | 35887 ft | 449 kts | 248° |
| 2026-05-06 11:11 | 13.50314 | 118.49264 | 35890 ft | 450 kts | 248° |
| 2026-05-06 11:11 | 13.47916 | 118.43326 | 35893 ft | 450 kts | 248° |
| 2026-05-06 11:12 | 13.45510 | 118.37389 | 35894 ft | 450 kts | 248° |
| 2026-05-06 11:12 | 13.43123 | 118.31490 | 35895 ft | 450 kts | 248° |
| 2026-05-06 11:13 | 13.40709 | 118.25554 | 35896 ft | 450 kts | 248° |
| 2026-05-06 11:13 | 13.38299 | 118.19612 | 35898 ft | 450 kts | 248° |
| 2026-05-06 11:14 | 13.35891 | 118.13673 | 35900 ft | 450 kts | 248° |
| 2026-05-06 11:14 | 13.33483 | 118.07735 | 35901 ft | 450 kts | 248° |
| 2026-05-06 11:15 | 13.31072 | 118.01793 | 35903 ft | 450 kts | 248° |
| 2026-05-06 11:15 | 13.28661 | 117.95857 | 35902 ft | 451 kts | 248° |
| 2026-05-06 11:16 | 13.26233 | 117.89927 | 35899 ft | 451 kts | 248° |
| 2026-05-06 11:16 | 13.23809 | 117.83997 | 35900 ft | 450 kts | 248° |
| 2026-05-06 11:17 | 13.21395 | 117.78064 | 35902 ft | 450 kts | 248° |
| 2026-05-06 11:17 | 13.18981 | 117.72133 | 35902 ft | 450 kts | 248° |
| 2026-05-06 11:18 | 13.16563 | 117.66204 | 35900 ft | 450 kts | 248° |
| 2026-05-06 11:18 | 13.14153 | 117.60316 | 35901 ft | 450 kts | 248° |
| 2026-05-06 11:19 | 13.11728 | 117.54393 | 35904 ft | 450 kts | 248° |
| 2026-05-06 11:19 | 13.09301 | 117.48481 | 35903 ft | 450 kts | 248° |
| 2026-05-06 11:20 | 13.06877 | 117.42560 | 35898 ft | 450 kts | 248° |
| 2026-05-06 11:20 | 13.04449 | 117.36636 | 35896 ft | 450 kts | 248° |
| 2026-05-06 11:21 | 13.02031 | 117.30748 | 35895 ft | 451 kts | 248° |
| 2026-05-06 11:21 | 12.99601 | 117.24824 | 35893 ft | 451 kts | 248° |
| 2026-05-06 11:22 | 12.97174 | 117.18905 | 35894 ft | 451 kts | 248° |
| 2026-05-06 11:22 | 12.94739 | 117.12978 | 35893 ft | 451 kts | 248° |
| 2026-05-06 11:23 | 12.92299 | 117.07052 | 35894 ft | 451 kts | 248° |
| 2026-05-06 11:23 | 12.89858 | 117.01124 | 35895 ft | 451 kts | 248° |
| 2026-05-06 11:24 | 12.87405 | 116.95190 | 35894 ft | 451 kts | 248° |
| 2026-05-06 11:24 | 12.84972 | 116.89300 | 35896 ft | 451 kts | 248° |
| 2026-05-06 11:25 | 12.82516 | 116.83367 | 35896 ft | 452 kts | 248° |
| 2026-05-06 11:25 | 12.80075 | 116.77440 | 35896 ft | 452 kts | 248° |
| 2026-05-06 11:26 | 12.77624 | 116.71492 | 35899 ft | 452 kts | 248° |
| 2026-05-06 11:26 | 12.75171 | 116.65566 | 35891 ft | 452 kts | 248° |
| 2026-05-06 11:27 | 12.72714 | 116.59638 | 35894 ft | 452 kts | 248° |
| 2026-05-06 11:27 | 12.70269 | 116.53742 | 35895 ft | 452 kts | 248° |
| 2026-05-06 11:28 | 12.67807 | 116.47810 | 35900 ft | 452 kts | 248° |
| 2026-05-06 11:28 | 12.65343 | 116.41871 | 35902 ft | 452 kts | 248° |
| 2026-05-06 11:29 | 12.62888 | 116.35944 | 35903 ft | 452 kts | 248° |
| 2026-05-06 11:29 | 12.60425 | 116.30016 | 35903 ft | 452 kts | 248° |
| 2026-05-06 11:30 | 12.57978 | 116.24127 | 35900 ft | 452 kts | 248° |
| 2026-05-06 11:30 | 12.55505 | 116.18200 | 35901 ft | 452 kts | 248° |
| 2026-05-06 11:31 | 12.53037 | 116.12277 | 35902 ft | 452 kts | 248° |
| 2026-05-06 11:31 | 12.50569 | 116.06344 | 35901 ft | 453 kts | 248° |
| 2026-05-06 11:32 | 12.48098 | 116.00401 | 35898 ft | 453 kts | 248° |
| 2026-05-06 11:32 | 12.45626 | 115.94478 | 35899 ft | 453 kts | 248° |
| 2026-05-06 11:33 | 12.43163 | 115.88578 | 35900 ft | 453 kts | 248° |
| 2026-05-06 11:33 | 12.40689 | 115.82653 | 35901 ft | 453 kts | 248° |
| 2026-05-06 11:34 | 12.38199 | 115.76707 | 35903 ft | 453 kts | 248° |
| 2026-05-06 11:34 | 12.35717 | 115.70782 | 35904 ft | 453 kts | 248° |
| 2026-05-06 11:35 | 12.33235 | 115.64847 | 35903 ft | 453 kts | 248° |
| 2026-05-06 11:35 | 12.30748 | 115.58919 | 35904 ft | 453 kts | 248° |
| 2026-05-06 11:36 | 12.28254 | 115.52993 | 35907 ft | 453 kts | 248° |
| 2026-05-06 11:36 | 12.25786 | 115.47107 | 35909 ft | 453 kts | 248° |
| 2026-05-06 11:37 | 12.23294 | 115.41178 | 35908 ft | 453 kts | 248° |
| 2026-05-06 11:37 | 12.20805 | 115.35247 | 35899 ft | 454 kts | 248° |
| 2026-05-06 11:38 | 12.18307 | 115.29309 | 35909 ft | 454 kts | 248° |
| 2026-05-06 11:38 | 12.15815 | 115.23379 | 35910 ft | 454 kts | 248° |
| 2026-05-06 11:39 | 12.13318 | 115.17451 | 35909 ft | 454 kts | 248° |
| 2026-05-06 11:39 | 12.10820 | 115.11520 | 35902 ft | 454 kts | 248° |
| 2026-05-06 11:40 | 12.08320 | 115.05593 | 35905 ft | 454 kts | 248° |
| 2026-05-06 11:40 | 12.05832 | 114.99705 | 35907 ft | 454 kts | 248° |
| 2026-05-06 11:41 | 12.03326 | 114.93792 | 35904 ft | 453 kts | 248° |
| 2026-05-06 11:41 | 12.00822 | 114.87871 | 35905 ft | 453 kts | 248° |
| 2026-05-06 11:42 | 11.98323 | 114.81950 | 35904 ft | 453 kts | 248° |
| 2026-05-06 11:42 | 11.95842 | 114.76073 | 35903 ft | 453 kts | 248° |
| 2026-05-06 11:43 | 11.93336 | 114.70147 | 35900 ft | 454 kts | 248° |
| 2026-05-06 11:43 | 11.90822 | 114.64222 | 35903 ft | 454 kts | 248° |
| 2026-05-06 11:44 | 11.87048 | 114.55345 | 35897 ft | 454 kts | 248° |
| 2026-05-06 11:44 | 11.84960 | 114.50421 | 35897 ft | 454 kts | 248° |
| 2026-05-06 11:45 | 11.82452 | 114.44504 | 35897 ft | 454 kts | 248° |
| 2026-05-06 11:45 | 11.79940 | 114.38594 | 35893 ft | 454 kts | 248° |
| 2026-05-06 11:46 | 11.77428 | 114.32689 | 35895 ft | 454 kts | 248° |
| 2026-05-06 11:46 | 11.74918 | 114.26778 | 35899 ft | 453 kts | 248° |
| 2026-05-06 11:47 | 11.72404 | 114.20874 | 35897 ft | 454 kts | 248° |
| 2026-05-06 11:47 | 11.69884 | 114.14969 | 35897 ft | 454 kts | 248° |
| 2026-05-06 11:48 | 11.67363 | 114.09072 | 35892 ft | 454 kts | 248° |
| 2026-05-06 11:48 | 11.64855 | 114.03199 | 35892 ft | 454 kts | 248° |
| 2026-05-06 11:49 | 11.63161 | 113.97037 | 35889 ft | 450 kts | 265° |
| 2026-05-06 11:49 | 11.62467 | 113.90686 | 35891 ft | 451 kts | 265° |
| 2026-05-06 11:50 | 11.61735 | 113.84326 | 35896 ft | 451 kts | 264° |
| 2026-05-06 11:50 | 11.60996 | 113.78007 | 35898 ft | 451 kts | 265° |
| 2026-05-06 11:51 | 11.60263 | 113.71647 | 35899 ft | 452 kts | 265° |
| 2026-05-06 11:51 | 11.59543 | 113.65279 | 35899 ft | 452 kts | 265° |
| 2026-05-06 11:52 | 11.58823 | 113.58912 | 35900 ft | 452 kts | 265° |
| 2026-05-06 11:52 | 11.58092 | 113.52544 | 35901 ft | 452 kts | 264° |
| 2026-05-06 11:53 | 11.57362 | 113.46221 | 35900 ft | 452 kts | 264° |
| 2026-05-06 11:53 | 11.56630 | 113.39856 | 35900 ft | 452 kts | 264° |
| 2026-05-06 11:54 | 11.55901 | 113.33492 | 35905 ft | 452 kts | 264° |
| 2026-05-06 11:54 | 11.55157 | 113.27122 | 35901 ft | 452 kts | 264° |
| 2026-05-06 11:55 | 11.54412 | 113.20758 | 35898 ft | 452 kts | 264° |
| 2026-05-06 11:55 | 11.53676 | 113.14398 | 35899 ft | 452 kts | 264° |
| 2026-05-06 11:56 | 11.52937 | 113.08030 | 35900 ft | 451 kts | 264° |
| 2026-05-06 11:56 | 11.52205 | 113.01710 | 35899 ft | 451 kts | 264° |
| 2026-05-06 11:57 | 11.51461 | 112.95353 | 35897 ft | 451 kts | 264° |
| 2026-05-06 11:57 | 11.50717 | 112.89007 | 35896 ft | 451 kts | 264° |
| 2026-05-06 11:58 | 11.49978 | 112.82661 | 35898 ft | 450 kts | 264° |
| 2026-05-06 11:58 | 11.49235 | 112.76326 | 35895 ft | 450 kts | 264° |
| 2026-05-06 11:59 | 11.48484 | 112.69988 | 35890 ft | 450 kts | 264° |
| 2026-05-06 11:59 | 11.47732 | 112.63644 | 35891 ft | 451 kts | 264° |
| 2026-05-06 12:00 | 11.46981 | 112.57304 | 35889 ft | 451 kts | 264° |
| 2026-05-06 12:00 | 11.46274 | 112.50944 | 35892 ft | 451 kts | 265° |
| 2026-05-06 12:01 | 11.45595 | 112.44582 | 35895 ft | 451 kts | 265° |
| 2026-05-06 12:01 | 11.44906 | 112.38219 | 35893 ft | 452 kts | 264° |
| 2026-05-06 12:02 | 11.44200 | 112.31856 | 35898 ft | 452 kts | 264° |
| 2026-05-06 12:02 | 11.43494 | 112.25516 | 35896 ft | 453 kts | 264° |
| 2026-05-06 12:03 | 11.42774 | 112.19101 | 35898 ft | 453 kts | 264° |
| 2026-05-06 12:03 | 11.42072 | 112.12764 | 35899 ft | 453 kts | 264° |
| 2026-05-06 12:04 | 11.41366 | 112.06386 | 35901 ft | 453 kts | 264° |
| 2026-05-06 12:04 | 11.40650 | 112.00008 | 35905 ft | 453 kts | 264° |
| 2026-05-06 12:05 | 11.39937 | 111.93631 | 35900 ft | 452 kts | 264° |
| 2026-05-06 12:05 | 11.39227 | 111.87263 | 35901 ft | 452 kts | 264° |
| 2026-05-06 12:06 | 11.38512 | 111.80897 | 35899 ft | 452 kts | 264° |
| 2026-05-06 12:06 | 11.37794 | 111.74530 | 35899 ft | 452 kts | 264° |
| 2026-05-06 12:07 | 11.37079 | 111.68162 | 35900 ft | 452 kts | 264° |
| 2026-05-06 12:07 | 11.36368 | 111.61801 | 35898 ft | 452 kts | 264° |
| 2026-05-06 12:08 | 11.35641 | 111.55436 | 35906 ft | 452 kts | 264° |
| 2026-05-06 12:08 | 11.34913 | 111.49065 | 35902 ft | 452 kts | 264° |
| 2026-05-06 12:09 | 11.34190 | 111.42699 | 35905 ft | 452 kts | 264° |
| 2026-05-06 12:09 | 11.33476 | 111.36334 | 35904 ft | 452 kts | 264° |
| 2026-05-06 12:10 | 11.32757 | 111.30005 | 35905 ft | 452 kts | 264° |
| 2026-05-06 12:10 | 11.32027 | 111.23644 | 35901 ft | 452 kts | 264° |
| 2026-05-06 12:11 | 11.31301 | 111.17283 | 35899 ft | 452 kts | 264° |
| 2026-05-06 12:11 | 11.30570 | 111.10922 | 35898 ft | 452 kts | 264° |
| 2026-05-06 12:12 | 11.29808 | 111.04567 | 35906 ft | 451 kts | 263° |
| 2026-05-06 12:12 | 11.29008 | 110.98218 | 35901 ft | 451 kts | 263° |
| 2026-05-06 12:13 | 11.28214 | 110.91919 | 35906 ft | 451 kts | 263° |
| 2026-05-06 12:13 | 11.27428 | 110.85581 | 35894 ft | 451 kts | 263° |
| 2026-05-06 12:14 | 11.26641 | 110.79247 | 35896 ft | 451 kts | 263° |
| 2026-05-06 12:14 | 11.25849 | 110.72901 | 35889 ft | 452 kts | 263° |
| 2026-05-06 12:15 | 11.25055 | 110.66549 | 35894 ft | 452 kts | 263° |
| 2026-05-06 12:15 | 11.24261 | 110.60200 | 35890 ft | 452 kts | 263° |
| 2026-05-06 12:16 | 11.23465 | 110.53850 | 35901 ft | 452 kts | 263° |
| 2026-05-06 12:16 | 11.22671 | 110.47499 | 35893 ft | 452 kts | 263° |
| 2026-05-06 12:17 | 11.21880 | 110.41192 | 35891 ft | 452 kts | 263° |
| 2026-05-06 12:17 | 11.21071 | 110.34798 | 35889 ft | 453 kts | 263° |
| 2026-05-06 12:18 | 11.20264 | 110.28477 | 35890 ft | 453 kts | 263° |
| 2026-05-06 12:18 | 11.19465 | 110.22120 | 35891 ft | 453 kts | 263° |
| 2026-05-06 12:19 | 11.18660 | 110.15754 | 35897 ft | 453 kts | 263° |
| 2026-05-06 12:19 | 11.17852 | 110.09389 | 35887 ft | 454 kts | 262° |
| 2026-05-06 12:20 | 11.17038 | 110.03012 | 35885 ft | 454 kts | 262° |
| 2026-05-06 12:20 | 11.16225 | 109.96627 | 35886 ft | 455 kts | 262° |
| 2026-05-06 12:21 | 11.15409 | 109.90235 | 35889 ft | 455 kts | 262° |
| 2026-05-06 12:21 | 11.14597 | 109.83838 | 35891 ft | 455 kts | 262° |
| 2026-05-06 12:22 | 11.13784 | 109.77439 | 35892 ft | 456 kts | 262° |
| 2026-05-06 12:22 | 11.12958 | 109.71033 | 35892 ft | 456 kts | 262° |
| 2026-05-06 12:23 | 11.12130 | 109.64635 | 35895 ft | 456 kts | 262° |
| 2026-05-06 12:23 | 11.11310 | 109.58226 | 35898 ft | 457 kts | 262° |
| 2026-05-06 12:24 | 11.10491 | 109.51810 | 35900 ft | 457 kts | 262° |
| 2026-05-06 12:24 | 11.09720 | 109.45390 | 35898 ft | 457 kts | 262° |
| 2026-05-06 12:25 | 11.08965 | 109.39002 | 35895 ft | 458 kts | 262° |
| 2026-05-06 12:25 | 11.08194 | 109.32565 | 35891 ft | 458 kts | 262° |
| 2026-05-06 12:26 | 11.07414 | 109.26128 | 35895 ft | 459 kts | 262° |
| 2026-05-06 12:26 | 11.06633 | 109.19680 | 35897 ft | 459 kts | 262° |
| 2026-05-06 12:27 | 11.05861 | 109.13228 | 35898 ft | 459 kts | 262° |
| 2026-05-06 12:27 | 11.05077 | 109.06776 | 35891 ft | 459 kts | 262° |
| 2026-05-06 12:28 | 11.04289 | 109.00322 | 35896 ft | 460 kts | 262° |
| 2026-05-06 12:28 | 11.03497 | 108.93857 | 35647 ft | 460 kts | 261° |
| 2026-05-06 12:29 | 11.03104 | 108.90640 | 35265 ft | 457 kts | 262° |
| 2026-05-06 12:29 | 11.02713 | 108.87434 | 34762 ft | 456 kts | 261° |
| 2026-05-06 12:29 | 11.02322 | 108.84227 | 34264 ft | 454 kts | 261° |
| 2026-05-06 12:29 | 11.01938 | 108.81071 | 33758 ft | 453 kts | 261° |
| 2026-05-06 12:30 | 11.01551 | 108.77896 | 33239 ft | 451 kts | 261° |
| 2026-05-06 12:30 | 11.01168 | 108.74757 | 32758 ft | 448 kts | 261° |
| 2026-05-06 12:30 | 11.00784 | 108.71618 | 32256 ft | 445 kts | 261° |
| 2026-05-06 12:30 | 11.00399 | 108.68501 | 31762 ft | 443 kts | 261° |
| 2026-05-06 12:31 | 11.00013 | 108.65397 | 31271 ft | 440 kts | 262° |
| 2026-05-06 12:31 | 10.99631 | 108.62311 | 30783 ft | 438 kts | 262° |
| 2026-05-06 12:31 | 10.99252 | 108.59244 | 30304 ft | 436 kts | 262° |
| 2026-05-06 12:31 | 10.99003 | 108.57223 | 29987 ft | 435 kts | 262° |
| 2026-05-06 12:32 | 10.98503 | 108.53153 | 29312 ft | 430 kts | 262° |
| 2026-05-06 12:32 | 10.98258 | 108.51154 | 29010 ft | 428 kts | 262° |
| 2026-05-06 12:32 | 10.97892 | 108.48169 | 28559 ft | 424 kts | 262° |
| 2026-05-06 12:32 | 10.97528 | 108.45202 | 28122 ft | 420 kts | 262° |
| 2026-05-06 12:33 | 10.97165 | 108.42267 | 27689 ft | 417 kts | 262° |
| 2026-05-06 12:33 | 10.96804 | 108.39348 | 27267 ft | 414 kts | 262° |
| 2026-05-06 12:33 | 10.96448 | 108.36457 | 26849 ft | 411 kts | 262° |
| 2026-05-06 12:33 | 10.96090 | 108.33570 | 26437 ft | 409 kts | 261° |
| 2026-05-06 12:34 | 10.95731 | 108.30699 | 26028 ft | 407 kts | 261° |
| 2026-05-06 12:34 | 10.95374 | 108.27848 | 25612 ft | 406 kts | 262° |
| 2026-05-06 12:34 | 10.95019 | 108.24997 | 25188 ft | 405 kts | 262° |
| 2026-05-06 12:34 | 10.94667 | 108.22157 | 24764 ft | 403 kts | 262° |
| 2026-05-06 12:35 | 10.94320 | 108.19363 | 24333 ft | 403 kts | 262° |
| 2026-05-06 12:35 | 10.93969 | 108.16539 | 23899 ft | 402 kts | 262° |
| 2026-05-06 12:35 | 10.93617 | 108.13714 | 23447 ft | 402 kts | 262° |
| 2026-05-06 12:35 | 10.93266 | 108.10894 | 22945 ft | 401 kts | 262° |
| 2026-05-06 12:36 | 10.92944 | 108.08085 | 22484 ft | 398 kts | 266° |
| 2026-05-06 12:36 | 10.93041 | 108.05279 | 22033 ft | 396 kts | 277° |
| 2026-05-06 12:36 | 10.93399 | 108.02506 | 21585 ft | 394 kts | 277° |
| 2026-05-06 12:36 | 10.93753 | 107.99749 | 21124 ft | 392 kts | 277° |
| 2026-05-06 12:37 | 10.94101 | 107.97009 | 20675 ft | 389 kts | 277° |
| 2026-05-06 12:37 | 10.94447 | 107.94281 | 20220 ft | 387 kts | 277° |
| 2026-05-06 12:37 | 10.94790 | 107.91574 | 19770 ft | 385 kts | 277° |
| 2026-05-06 12:37 | 10.95131 | 107.88882 | 19321 ft | 383 kts | 277° |
| 2026-05-06 12:38 | 10.95471 | 107.86203 | 18871 ft | 381 kts | 277° |
| 2026-05-06 12:38 | 10.95810 | 107.83532 | 18435 ft | 379 kts | 277° |
| 2026-05-06 12:38 | 10.96145 | 107.80874 | 18053 ft | 375 kts | 277° |
| 2026-05-06 12:38 | 10.96473 | 107.78262 | 17672 ft | 370 kts | 277° |
| 2026-05-06 12:39 | 10.96796 | 107.75683 | 17241 ft | 366 kts | 277° |
| 2026-05-06 12:39 | 10.97117 | 107.73123 | 16813 ft | 363 kts | 277° |
| 2026-05-06 12:39 | 10.97435 | 107.70588 | 16388 ft | 360 kts | 277° |
| 2026-05-06 12:39 | 10.97752 | 107.68072 | 15969 ft | 357 kts | 277° |
| 2026-05-06 12:40 | 10.98067 | 107.65577 | 15548 ft | 354 kts | 277° |
| 2026-05-06 12:40 | 10.98380 | 107.63095 | 15136 ft | 352 kts | 277° |
| 2026-05-06 12:40 | 10.98690 | 107.60636 | 14719 ft | 350 kts | 277° |
| 2026-05-06 12:40 | 10.98994 | 107.58219 | 14315 ft | 348 kts | 277° |
| 2026-05-06 12:41 | 10.99301 | 107.55783 | 13906 ft | 346 kts | 277° |
| 2026-05-06 12:41 | 10.99606 | 107.53356 | 13483 ft | 344 kts | 277° |
| 2026-05-06 12:41 | 10.99907 | 107.50948 | 13067 ft | 342 kts | 277° |
| 2026-05-06 12:41 | 11.00204 | 107.48559 | 12669 ft | 338 kts | 277° |
| 2026-05-06 12:42 | 11.00502 | 107.46186 | 12275 ft | 336 kts | 278° |
| 2026-05-06 12:42 | 11.00796 | 107.43856 | 12049 ft | 327 kts | 278° |
| 2026-05-06 12:42 | 11.01081 | 107.41588 | 11810 ft | 320 kts | 278° |
| 2026-05-06 12:42 | 11.01294 | 107.39342 | 11440 ft | 318 kts | 270° |
| 2026-05-06 12:43 | 11.01046 | 107.37129 | 10921 ft | 314 kts | 257° |
| 2026-05-06 12:43 | 11.00588 | 107.34976 | 10404 ft | 310 kts | 259° |
| 2026-05-06 12:43 | 11.00192 | 107.32829 | 9934 ft | 306 kts | 260° |
| 2026-05-06 12:43 | 10.99816 | 107.30709 | 9410 ft | 303 kts | 260° |
| 2026-05-06 12:44 | 10.99440 | 107.28598 | 8958 ft | 302 kts | 260° |
| 2026-05-06 12:44 | 10.99065 | 107.26501 | 8632 ft | 300 kts | 260° |
| 2026-05-06 12:44 | 10.98691 | 107.24419 | 8275 ft | 298 kts | 260° |
| 2026-05-06 12:44 | 10.98318 | 107.22346 | 7929 ft | 297 kts | 260° |
| 2026-05-06 12:45 | 10.97946 | 107.20288 | 7592 ft | 295 kts | 260° |
| 2026-05-06 12:45 | 10.97573 | 107.18241 | 7260 ft | 294 kts | 260° |
| 2026-05-06 12:45 | 10.96830 | 107.14177 | 6603 ft | 291 kts | 260° |
| 2026-05-06 12:46 | 10.96462 | 107.12184 | 6280 ft | 289 kts | 259° |
| 2026-05-06 12:46 | 10.95959 | 107.10179 | 5936 ft | 288 kts | 254° |
| 2026-05-06 12:46 | 10.95409 | 107.08247 | 5604 ft | 287 kts | 254° |
| 2026-05-06 12:46 | 10.94854 | 107.06303 | 5273 ft | 285 kts | 254° |
| 2026-05-06 12:47 | 10.94304 | 107.04375 | 4946 ft | 283 kts | 254° |
| 2026-05-06 12:47 | 10.93758 | 107.02458 | 4619 ft | 281 kts | 254° |
| 2026-05-06 12:47 | 10.93217 | 107.00550 | 4283 ft | 280 kts | 255° |
| 2026-05-06 12:47 | 10.92789 | 106.98636 | 4114 ft | 271 kts | 258° |
| 2026-05-06 12:48 | 10.92428 | 106.96810 | 4131 ft | 254 kts | 259° |
| 2026-05-06 12:48 | 10.92094 | 106.95092 | 4147 ft | 242 kts | 259° |
| 2026-05-06 12:48 | 10.91773 | 106.93438 | 4169 ft | 237 kts | 259° |
| 2026-05-06 12:48 | 10.91455 | 106.91797 | 4143 ft | 236 kts | 259° |
| 2026-05-06 12:49 | 10.91141 | 106.90160 | 4136 ft | 236 kts | 260° |
| 2026-05-06 12:49 | 10.90797 | 106.88534 | 4136 ft | 236 kts | 254° |
| 2026-05-06 12:49 | 10.90270 | 106.86948 | 4029 ft | 236 kts | 249° |
| 2026-05-06 12:49 | 10.89695 | 106.85427 | 3767 ft | 227 kts | 249° |
| 2026-05-06 12:50 | 10.89139 | 106.83963 | 3495 ft | 212 kts | 248° |
| 2026-05-06 12:50 | 10.88634 | 106.82626 | 3241 ft | 195 kts | 249° |
| 2026-05-06 12:50 | 10.88176 | 106.81409 | 3002 ft | 180 kts | 248° |
| 2026-05-06 12:50 | 10.87737 | 106.80244 | 2779 ft | 174 kts | 248° |
| 2026-05-06 12:51 | 10.87307 | 106.79104 | 2565 ft | 172 kts | 248° |
| 2026-05-06 12:51 | 10.86890 | 106.77997 | 2368 ft | 164 kts | 247° |
| 2026-05-06 12:51 | 10.86490 | 106.76935 | 2137 ft | 159 kts | 247° |
| 2026-05-06 12:51 | 10.86096 | 106.75891 | 1939 ft | 157 kts | 246° |
| 2026-05-06 12:52 | 10.85706 | 106.74855 | 1741 ft | 157 kts | 246° |
| 2026-05-06 12:52 | 10.85315 | 106.73821 | 1546 ft | 157 kts | 246° |
| 2026-05-06 12:52 | 10.84924 | 106.72783 | 1345 ft | 157 kts | 247° |
| 2026-05-06 12:52 | 10.84534 | 106.71749 | 1137 ft | 156 kts | 247° |
| 2026-05-06 12:53 | 10.84148 | 106.70726 | 959 ft | 154 kts | 248° |
| 2026-05-06 12:53 | 10.83763 | 106.69709 | 765 ft | 153 kts | 248° |
| 2026-05-06 12:53 | 10.83375 | 106.68699 | 573 ft | 153 kts | 249° |
| 2026-05-06 12:53 | 10.83010 | 106.67692 | 332 ft | 150 kts | 250° |
| 2026-05-06 12:54 | 10.82622 | 106.66701 | 163 ft | 151 kts | 250° |
| 2026-05-06 12:54 | 10.82255 | 106.65716 | 46 ft | 142 kts | 250° |
| 2026-05-06 12:54 | 10.81949 | 106.64900 | 36 ft | 99 kts | 249° |
| 2026-05-06 12:54 | 10.81785 | 106.64485 | 37 ft | 36 kts | 237° |
| 2026-05-06 12:55 | 10.81672 | 106.64357 | 35 ft | 15 kts | 219° |
| 2026-05-06 12:55 | 10.81584 | 106.64294 | 35 ft | 14 kts | 196° |
| 2026-05-06 12:55 | 10.81496 | 106.64311 | 36 ft | 9 kts | 159° |
| 2026-05-06 12:55 | 10.81426 | 106.64338 | 37 ft | 12 kts | 160° |
| 2026-05-06 12:56 | 10.81338 | 106.64370 | 37 ft | 10 kts | 160° |
| 2026-05-06 12:56 | 10.81261 | 106.64405 | 36 ft | 14 kts | 138° |
| 2026-05-06 12:56 | 10.81261 | 106.64484 | 36 ft | 7 kts | 68° |
| 2026-05-06 12:56 | 10.81280 | 106.64533 | 40 ft | 7 kts | 69° |
| 2026-05-06 12:57 | 10.81301 | 106.64588 | 40 ft | 10 kts | 69° |
| 2026-05-06 12:57 | 10.81328 | 106.64659 | 40 ft | 12 kts | 69° |
| 2026-05-06 12:57 | 10.81362 | 106.64746 | 40 ft | 14 kts | 69° |
| 2026-05-06 12:57 | 10.81399 | 106.64845 | 43 ft | 16 kts | 69° |
| 2026-05-06 12:58 | 10.81431 | 106.64932 | 42 ft | 15 kts | 69° |
| 2026-05-06 12:58 | 10.81470 | 106.65037 | 40 ft | 15 kts | 69° |
| 2026-05-06 12:58 | 10.81508 | 106.65139 | 37 ft | 15 kts | 69° |
| 2026-05-06 12:58 | 10.81535 | 106.65211 | 38 ft | 12 kts | 69° |
| 2026-05-06 12:59 | 10.81570 | 106.65301 | 35 ft | 16 kts | 69° |
| 2026-05-06 12:59 | 10.81604 | 106.65392 | 34 ft | 13 kts | 69° |
| 2026-05-06 12:59 | 10.81637 | 106.65477 | 34 ft | 12 kts | 69° |
| 2026-05-06 12:59 | 10.81665 | 106.65550 | 36 ft | 11 kts | 69° |
| 2026-05-06 13:00 | 10.81688 | 106.65613 | 36 ft | 8 kts | 69° |
| 2026-05-06 13:00 | 10.81710 | 106.65672 | 34 ft | 9 kts | 69° |
| 2026-05-06 13:00 | 10.81727 | 106.65730 | 35 ft | 9 kts | 85° |
| 2026-05-06 13:00 | 10.81702 | 106.65802 | 33 ft | 12 kts | 118° |
| 2026-05-06 13:01 | 10.81679 | 106.65867 | 35 ft | 9 kts | 98° |
| 2026-05-06 13:01 | 10.81693 | 106.65929 | 37 ft | 10 kts | 68° |
| 2026-05-06 13:01 | 10.81718 | 106.65994 | 37 ft | 10 kts | 68° |
| 2026-05-06 13:01 | 10.81742 | 106.66055 | 37 ft | 9 kts | 69° |
| 2026-05-06 13:02 | 10.81762 | 106.66111 | 37 ft | 8 kts | 69° |
| 2026-05-06 13:02 | 10.81752 | 106.66155 | 37 ft | 8 kts | 139° |
| 2026-05-06 13:02 | 10.81710 | 106.66174 | 37 ft | 5 kts | 159° |
| 2026-05-06 13:02 | 10.81688 | 106.66182 | 37 ft | 2 kts | 159° |
| 2026-05-06 13:03 | 10.81683 | 106.66184 | 37 ft | 0 kts | 159° |